Ye Chi — VRFV6 — position and weather

sailwx.info

Track history (hours):
 
Tides and Currents Weather Stations Pressure Air Temp Water Temp Dewpoint Dewpoint Depression Visibility Wind Speed Wind Dir Waves Ship Positions

Ye Chi

Last reported at 2014-Dec-21 15:30 UTC. Time now 2014-Dec-21 16:34 UTC.
Position N 01°17' E 103°56'.

Length 187 m; draft 7.5 m.

Type: Ship (hazmat cat D). MMSI: 477621300.

Date/timePositionNaut miles runAvg speedWind from/ knotsBaromVisibWave heightAir tempDewpointWater temp
2014-Dec-21 15:30N 01°17' E 103°56'0 0.1
2014-Dec-21 14:27N 01°17' E 103°56'0 0.0
2014-Dec-21 13:30N 01°17' E 103°56'0 0.1
2014-Dec-21 12:18N 01°17' E 103°56'0 0.0
2014-Dec-21 11:30N 01°17' E 103°56'0 0.1
2014-Dec-21 10:24N 01°17' E 103°57'0 0.0
2014-Dec-21 03:15N 01°17' E 103°57'0 0.1
2014-Dec-21 02:30N 01°17' E 103°56'0 0.1
2014-Dec-21 01:15N 01°17' E 103°56'1 1.2
2014-Dec-21 00:33N 01°17' E 103°56'8 7.7
2014-Dec-20 23:31N 01°13' E 103°49'0 0.3
2014-Dec-20 22:22N 01°13' E 103°49'0 0.0
2014-Dec-20 21:31N 01°13' E 103°49'0 0.0
2014-Dec-20 20:28N 01°13' E 103°49'0 0.0
2014-Dec-20 19:25N 01°13' E 103°49'0 0.1
2014-Dec-20 18:28N 01°13' E 103°49'0 0.1
2014-Dec-20 17:22N 01°13' E 103°49'0 0.1
2014-Dec-20 16:31N 01°13' E 103°49'0 0.0
2014-Dec-20 15:31N 01°13' E 103°49'0 0.1
2014-Dec-20 14:22N 01°13' E 103°49'0 0.1
2014-Dec-20 13:28N 01°13' E 103°49'0 0.1
2014-Dec-20 12:16N 01°13' E 103°49'0 0.1
2014-Dec-20 11:28N 01°13' E 103°49'0 0.1
2014-Dec-20 10:13N 01°13' E 103°49'0 0.1
2014-Dec-20 09:16N 01°13' E 103°49'0 0.1
2014-Dec-20 08:31N 01°13' E 103°49'1 0.7
2014-Dec-20 07:33N 01°13' E 103°49'2 0.1
2014-Dec-19 14:31N 01°12' E 103°48'0 0.0
2014-Dec-19 13:28N 01°12' E 103°48'0 0.0
2014-Dec-19 06:33N 01°12' E 103°48'2 1.3
2014-Dec-19 05:11N 01°13' E 103°49'0 0.0
2014-Dec-19 04:31N 01°13' E 103°49'0 0.0
2014-Dec-19 02:33N 01°13' E 103°49'7 6.9
2014-Dec-19 01:33N 01°15' E 103°56'6 5.8
2014-Dec-19 00:33N 01°16' E 104°02'7 6.4
2014-Dec-18 23:29N 01°17' E 104°08'9 9.7
2014-Dec-18 22:31N 01°18' E 104°18'  
2014-Dec-13 16:33N 23°43' E 118°13'1312.2
2014-Dec-13 15:31N 23°52' E 118°23'5313.0
2014-Dec-13 11:26N 24°28' E 119°05'1213.5
2014-Dec-13 10:33N 24°36' E 119°14'  
Track history (hours):
 
Tides and Currents Weather Stations Pressure Air Temp Water Temp Dewpoint Dewpoint Depression Visibility Wind Speed Wind Dir Waves Ship Positions

Ye Chi

Last reported at 2014-Dec-21 15:30 UTC. Time now 2014-Dec-21 16:34 UTC.
Position N 01°17' E 103°56'.

Length 187 m; draft 7.5 m.

Type: Ship (hazmat cat D). MMSI: 477621300.

Date/timePositionNaut miles runAvg speedWind from/ knotsBaromVisibWave heightAir tempDewpointWater temp
2014-Dec-21 15:30N 01°17' E 103°56'0 0.1
2014-Dec-21 14:27N 01°17' E 103°56'0 0.0
2014-Dec-21 13:30N 01°17' E 103°56'0 0.1
2014-Dec-21 12:18N 01°17' E 103°56'0 0.0
2014-Dec-21 11:30N 01°17' E 103°56'0 0.1
2014-Dec-21 10:24N 01°17' E 103°57'0 0.0
2014-Dec-21 03:15N 01°17' E 103°57'0 0.1
2014-Dec-21 02:30N 01°17' E 103°56'0 0.1
2014-Dec-21 01:15N 01°17' E 103°56'1 1.2
2014-Dec-21 00:33N 01°17' E 103°56'8 7.7
2014-Dec-20 23:31N 01°13' E 103°49'0 0.3
2014-Dec-20 22:22N 01°13' E 103°49'0 0.0
2014-Dec-20 21:31N 01°13' E 103°49'0 0.0
2014-Dec-20 20:28N 01°13' E 103°49'0 0.0
2014-Dec-20 19:25N 01°13' E 103°49'0 0.1
2014-Dec-20 18:28N 01°13' E 103°49'0 0.1
2014-Dec-20 17:22N 01°13' E 103°49'0 0.1
2014-Dec-20 16:31N 01°13' E 103°49'0 0.0
2014-Dec-20 15:31N 01°13' E 103°49'0 0.1
2014-Dec-20 14:22N 01°13' E 103°49'0 0.1
2014-Dec-20 13:28N 01°13' E 103°49'0 0.1
2014-Dec-20 12:16N 01°13' E 103°49'0 0.1
2014-Dec-20 11:28N 01°13' E 103°49'0 0.1
2014-Dec-20 10:13N 01°13' E 103°49'0 0.1
2014-Dec-20 09:16N 01°13' E 103°49'0 0.1
2014-Dec-20 08:31N 01°13' E 103°49'1 0.7
2014-Dec-20 07:33N 01°13' E 103°49'2 0.1
2014-Dec-19 14:31N 01°12' E 103°48'0 0.0
2014-Dec-19 13:28N 01°12' E 103°48'0 0.0
2014-Dec-19 06:33N 01°12' E 103°48'2 1.3
2014-Dec-19 05:11N 01°13' E 103°49'0 0.0
2014-Dec-19 04:31N 01°13' E 103°49'0 0.0
2014-Dec-19 02:33N 01°13' E 103°49'7 6.9
2014-Dec-19 01:33N 01°15' E 103°56'6 5.8
2014-Dec-19 00:33N 01°16' E 104°02'7 6.4
2014-Dec-18 23:29N 01°17' E 104°08'9 9.7
2014-Dec-18 22:31N 01°18' E 104°18'  
2014-Dec-13 16:33N 23°43' E 118°13'1312.2
2014-Dec-13 15:31N 23°52' E 118°23'5313.0
2014-Dec-13 11:26N 24°28' E 119°05'1213.5
2014-Dec-13 10:33N 24°36' E 119°14'  

Dump ship's entire track history